createdAt,value
2022-08-29T00:00:27.044Z,86.52
2022-08-29T00:02:56.955Z,85.00
2022-08-29T00:05:27.666Z,84.34
2022-08-29T00:07:54.325Z,85.76
2022-08-29T00:10:21.692Z,85.88
2022-08-29T00:12:48.383Z,85.94
2022-08-29T00:15:16.152Z,85.69
2022-08-29T00:17:43.571Z,86.42
2022-08-29T00:20:14.148Z,85.92
2022-08-29T00:22:42.338Z,85.88
2022-08-29T00:25:10.437Z,86.20
2022-08-29T00:27:37.240Z,87.75
2022-08-29T00:30:06.977Z,86.38
2022-08-29T00:32:33.681Z,87.52
2022-08-29T00:35:01.670Z,87.11
2022-08-29T00:37:28.297Z,87.35
2022-08-29T00:39:55.228Z,87.97
2022-08-29T00:42:23.524Z,87.63
2022-08-29T00:44:50.193Z,88.31
2022-08-29T00:47:20.912Z,88.57
2022-08-29T00:49:51.501Z,90.32
2022-08-29T00:52:28.683Z,92.17
2022-08-29T00:54:56.651Z,92.07
2022-08-29T00:57:27.575Z,93.26
2022-08-29T00:59:54.373Z,92.57
2022-08-29T01:02:21.065Z,91.17
2022-08-29T01:04:47.866Z,91.69
2022-08-29T01:07:14.924Z,94.59
2022-08-29T01:09:43.710Z,92.64
2022-08-29T01:12:10.821Z,91.71
2022-08-29T01:14:38.758Z,92.15
2022-08-29T01:17:08.771Z,90.70
2022-08-29T01:19:43.495Z,88.30
2022-08-29T01:22:13.855Z,89.59
2022-08-29T01:24:45.890Z,92.27
2022-08-29T01:27:13.457Z,92.04
2022-08-29T01:29:40.641Z,89.51
2022-08-29T01:32:07.342Z,88.48
2022-08-29T01:34:34.105Z,88.43
2022-08-29T01:37:06.690Z,86.62
2022-08-29T01:39:36.549Z,85.95
2022-08-29T01:42:23.689Z,85.60
2022-08-29T01:44:52.776Z,84.63
2022-08-29T01:47:20.577Z,85.60
2022-08-29T01:49:47.242Z,87.05
2022-08-29T01:52:13.863Z,88.74
2022-08-29T01:54:42.361Z,89.27
2022-08-29T01:57:12.990Z,88.29
2022-08-29T01:59:41.109Z,89.94
2022-08-29T02:02:15.311Z,89.31
2022-08-29T02:04:43.380Z,92.65
2022-08-29T02:07:12.673Z,92.00
2022-08-29T02:09:44.500Z,92.57
2022-08-29T02:12:13.766Z,92.21
2022-08-29T02:14:40.426Z,91.04
2022-08-29T02:17:07.966Z,91.68
2022-08-29T02:19:36.736Z,94.72
2022-08-29T02:22:03.882Z,94.33
2022-08-29T02:24:30.635Z,95.57
2022-08-29T02:26:58.205Z,97.14
2022-08-29T02:29:26.381Z,98.59
2022-08-29T02:32:04.994Z,98.39
2022-08-29T02:34:33.051Z,99.41
2022-08-29T02:36:59.665Z,97.86
2022-08-29T02:39:26.560Z,98.80
2022-08-29T02:41:53.212Z,95.71
2022-08-29T02:44:20.153Z,98.20
2022-08-29T02:46:47.533Z,99.22
2022-08-29T02:49:14.214Z,98.15
2022-08-29T02:51:41.705Z,98.12
2022-08-29T02:54:08.375Z,98.60
2022-08-29T02:56:35.039Z,99.29
2022-08-29T02:59:01.735Z,100.00
2022-08-29T03:01:28.393Z,97.79
2022-08-29T03:03:55.050Z,97.04
2022-08-29T03:06:22.107Z,97.19
2022-08-29T03:08:50.043Z,95.83
2022-08-29T03:11:17.360Z,97.63
2022-08-29T03:13:45.621Z,99.69
2022-08-29T03:16:13.288Z,100.00
2022-08-29T03:18:39.934Z,98.14
2022-08-29T03:21:14.902Z,99.47
2022-08-29T03:23:41.575Z,99.44
2022-08-29T03:26:08.195Z,99.49
2022-08-29T03:28:34.837Z,100.00
2022-08-29T03:31:01.590Z,100.00
2022-08-29T03:33:28.317Z,97.34
2022-08-29T03:35:54.938Z,99.48
2022-08-29T03:38:21.572Z,98.73
2022-08-29T03:40:48.357Z,96.23
2022-08-29T03:43:15.060Z,94.99
2022-08-29T03:45:42.696Z,93.16
2022-08-29T03:48:09.315Z,93.24
2022-08-29T03:50:35.956Z,94.66
2022-08-29T03:53:02.658Z,96.21
2022-08-29T03:55:29.385Z,96.39
2022-08-29T03:57:56.095Z,93.69
2022-08-29T04:00:23.000Z,94.57
2022-08-29T04:02:49.684Z,94.35
2022-08-29T04:05:18.480Z,94.33
2022-08-29T04:07:49.160Z,95.86
2022-08-29T04:10:22.964Z,97.91
2022-08-29T04:12:54.488Z,97.48
2022-08-29T04:15:23.135Z,96.77
2022-08-29T04:17:54.783Z,96.81
2022-08-29T04:20:25.344Z,98.75
2022-08-29T04:22:53.920Z,96.25
2022-08-29T04:25:20.891Z,95.89
2022-08-29T04:27:47.513Z,94.00
2022-08-29T04:30:18.008Z,93.60
2022-08-29T04:32:44.787Z,96.92
2022-08-29T04:35:14.192Z,98.46
2022-08-29T04:37:41.853Z,97.87
2022-08-29T04:40:10.683Z,97.16
2022-08-29T04:42:38.258Z,93.80
2022-08-29T04:45:07.425Z,93.43
2022-08-29T04:47:37.065Z,93.31
2022-08-29T04:50:05.881Z,95.82
2022-08-29T04:52:32.769Z,99.38
2022-08-29T04:54:59.648Z,99.43
2022-08-29T04:57:26.301Z,97.39
2022-08-29T04:59:57.146Z,97.82
2022-08-29T05:02:23.940Z,96.90
2022-08-29T05:04:50.730Z,97.53
2022-08-29T05:07:17.346Z,96.80
2022-08-29T05:09:43.974Z,97.63
2022-08-29T05:12:10.595Z,98.55
2022-08-29T05:14:37.212Z,97.23
2022-08-29T05:17:03.924Z,98.35
2022-08-29T05:19:34.615Z,97.95
2022-08-29T05:22:02.168Z,95.37
2022-08-29T05:24:28.861Z,93.95
2022-08-29T05:26:55.490Z,92.13
2022-08-29T05:29:22.251Z,92.18
2022-08-29T05:31:48.918Z,92.89
2022-08-29T05:34:34.718Z,91.30
2022-08-29T05:37:11.393Z,93.51
2022-08-29T05:39:39.280Z,92.65
2022-08-29T05:42:07.197Z,94.10
2022-08-29T05:44:35.689Z,91.56
2022-08-29T05:47:05.102Z,90.28
2022-08-29T05:49:31.977Z,88.06
2022-08-29T05:51:58.638Z,92.29
2022-08-29T05:54:25.474Z,91.06
2022-08-29T05:56:56.811Z,90.74
2022-08-29T05:59:23.439Z,90.67
2022-08-29T06:01:50.280Z,92.85
2022-08-29T06:04:17.066Z,92.06
2022-08-29T06:06:43.765Z,93.03
2022-08-29T06:09:12.194Z,92.70
2022-08-29T06:11:39.310Z,89.50
2022-08-29T06:14:06.367Z,86.25
2022-08-29T06:16:33.572Z,89.44
2022-08-29T06:19:01.109Z,89.89
2022-08-29T06:21:27.763Z,88.62
2022-08-29T06:23:54.647Z,87.43
2022-08-29T06:26:21.443Z,87.07
2022-08-29T06:28:48.610Z,87.10
2022-08-29T06:31:17.246Z,86.16
2022-08-29T06:33:44.078Z,87.54
2022-08-29T06:36:10.986Z,87.06
2022-08-29T06:38:37.706Z,85.54
2022-08-29T06:41:10.852Z,80.22
2022-08-29T06:43:37.681Z,82.97
2022-08-29T06:46:05.094Z,84.05
2022-08-29T06:48:31.838Z,85.33
2022-08-29T06:51:01.619Z,85.78
2022-08-29T06:53:31.617Z,85.54
2022-08-29T06:56:04.683Z,85.07
2022-08-29T06:58:32.923Z,84.24
2022-08-29T07:01:05.654Z,81.73
2022-08-29T07:03:32.344Z,78.85
2022-08-29T07:05:59.042Z,80.34
2022-08-29T07:08:25.688Z,81.83
2022-08-29T07:10:52.440Z,83.40
2022-08-29T07:13:19.059Z,83.29
2022-08-29T07:15:45.719Z,81.37
2022-08-29T07:18:12.549Z,80.95
2022-08-29T07:20:39.247Z,81.41
2022-08-29T07:23:06.688Z,83.09
2022-08-29T07:25:35.516Z,80.79
2022-08-29T07:28:02.429Z,82.31
2022-08-29T07:30:29.170Z,78.42
2022-08-29T07:32:55.872Z,80.08
2022-08-29T07:35:30.038Z,79.68
2022-08-29T07:38:00.990Z,77.01
2022-08-29T07:40:29.522Z,78.13
2022-08-29T07:42:56.262Z,77.13
2022-08-29T07:45:23.101Z,78.42
2022-08-29T07:47:49.865Z,80.86
2022-08-29T07:50:16.471Z,78.71
2022-08-29T07:52:43.333Z,79.80
2022-08-29T07:55:09.959Z,79.05
2022-08-29T07:57:39.835Z,76.80
2022-08-29T08:00:07.901Z,76.45
2022-08-29T08:02:34.623Z,75.44
2022-08-29T08:05:01.405Z,72.97
2022-08-29T08:07:29.577Z,74.06
2022-08-29T08:09:56.376Z,74.64
2022-08-29T08:12:22.985Z,75.88
2022-08-29T08:14:49.611Z,75.78
2022-08-29T08:17:16.315Z,73.43
2022-08-29T08:19:42.932Z,73.02
2022-08-29T08:22:09.712Z,71.00
2022-08-29T08:24:36.354Z,72.57
2022-08-29T08:27:02.995Z,71.17
2022-08-29T08:29:29.633Z,68.80
2022-08-29T08:31:56.374Z,70.36
2022-08-29T08:34:23.023Z,68.34
2022-08-29T08:36:50.367Z,67.69
2022-08-29T08:39:17.243Z,69.01
2022-08-29T08:42:05.497Z,67.93
2022-08-29T08:44:53.498Z,66.21
2022-08-29T08:47:31.201Z,68.09
2022-08-29T08:50:21.540Z,64.29
2022-08-29T08:52:57.191Z,65.28
2022-08-29T08:55:42.194Z,65.27
2022-08-29T08:58:17.806Z,67.76
2022-08-29T09:00:48.960Z,67.83
2022-08-29T09:03:23.430Z,67.62
2022-08-29T09:06:06.781Z,66.77
2022-08-29T09:08:46.815Z,66.95
2022-08-29T09:11:23.870Z,64.13
2022-08-29T09:14:12.312Z,65.56
2022-08-29T09:16:47.361Z,63.06
2022-08-29T09:19:17.282Z,63.43
2022-08-29T09:21:51.069Z,63.59
2022-08-29T09:24:48.381Z,60.85
2022-08-29T09:27:24.227Z,62.90
2022-08-29T09:30:01.350Z,62.00
2022-08-29T09:32:28.122Z,63.88
2022-08-29T09:35:08.439Z,62.39
2022-08-29T09:37:36.149Z,63.38
2022-08-29T09:40:07.889Z,59.85
2022-08-29T09:42:38.593Z,63.74
2022-08-29T09:45:16.808Z,60.77
2022-08-29T09:47:43.761Z,60.10
2022-08-29T09:50:23.314Z,61.04
2022-08-29T09:53:02.727Z,60.08
2022-08-29T09:55:45.392Z,59.97
2022-08-29T09:58:18.034Z,58.90
2022-08-29T10:01:00.960Z,58.53
2022-08-29T10:03:33.533Z,57.87
2022-08-29T10:06:14.219Z,57.78
2022-08-29T10:08:42.668Z,57.80
2022-08-29T10:11:23.947Z,56.09
2022-08-29T10:13:55.090Z,56.08
2022-08-29T10:16:30.729Z,57.00
2022-08-29T10:19:02.901Z,58.26
2022-08-29T10:21:50.523Z,60.15
2022-08-29T10:24:22.891Z,59.52
2022-08-29T10:27:24.953Z,58.37
2022-08-29T10:30:13.534Z,55.24
2022-08-29T10:33:08.301Z,55.10
2022-08-29T10:35:57.878Z,55.05
2022-08-29T10:38:46.104Z,54.90
2022-08-29T10:41:31.099Z,57.39
2022-08-29T10:44:08.911Z,57.82
2022-08-29T10:47:17.151Z,56.29
2022-08-29T10:50:00.022Z,57.52
2022-08-29T10:53:04.385Z,56.59
2022-08-29T10:55:50.095Z,56.90
2022-08-29T10:58:45.776Z,55.85
2022-08-29T11:01:29.655Z,55.03
2022-08-29T11:04:07.637Z,54.18
2022-08-29T11:06:48.180Z,55.51
2022-08-29T11:09:21.585Z,53.19
2022-08-29T11:12:17.427Z,56.35
2022-08-29T11:15:02.590Z,56.14
2022-08-29T11:17:36.038Z,53.03
2022-08-29T11:20:14.939Z,55.18
2022-08-29T11:22:48.335Z,53.88
2022-08-29T11:25:18.392Z,54.23
2022-08-29T11:27:54.641Z,53.75
2022-08-29T11:30:38.831Z,53.56
2022-08-29T11:33:50.593Z,51.65
2022-08-29T11:37:01.028Z,53.37
2022-08-29T11:39:30.286Z,53.30
2022-08-29T11:42:04.374Z,53.55
2022-08-29T11:44:35.233Z,50.86
2022-08-29T11:47:37.677Z,50.42
2022-08-29T11:50:16.055Z,50.38
2022-08-29T11:53:09.516Z,49.02
2022-08-29T11:55:42.711Z,51.42
2022-08-29T11:58:15.071Z,52.36
2022-08-29T12:00:46.171Z,51.00
2022-08-29T12:03:34.804Z,53.17
2022-08-29T12:06:10.690Z,53.92
2022-08-29T12:09:04.911Z,53.11
2022-08-29T12:12:01.062Z,53.38
2022-08-29T12:14:42.559Z,52.54
2022-08-29T12:17:51.245Z,55.20
2022-08-29T12:20:31.010Z,55.62
2022-08-29T12:23:19.713Z,56.76
2022-08-29T12:26:09.608Z,55.59
2022-08-29T12:28:45.867Z,56.18
2022-08-29T12:32:02.444Z,56.00
2022-08-29T12:34:42.758Z,52.41
2022-08-29T12:37:23.867Z,53.51
2022-08-29T12:40:10.968Z,54.59
2022-08-29T12:42:48.250Z,55.13
2022-08-29T12:45:28.375Z,55.86
2022-08-29T12:48:00.400Z,54.90
2022-08-29T12:50:27.893Z,54.34
2022-08-29T12:53:04.343Z,53.46
2022-08-29T12:55:39.532Z,53.46
2022-08-29T12:58:07.886Z,53.70
2022-08-29T13:00:35.417Z,52.83
2022-08-29T13:03:14.865Z,54.18
2022-08-29T13:05:43.373Z,51.53
2022-08-29T13:08:26.115Z,51.65
2022-08-29T13:10:57.865Z,54.11
2022-08-29T13:13:26.299Z,52.95
2022-08-29T13:16:00.967Z,51.59
2022-08-29T13:18:29.412Z,52.70
2022-08-29T13:21:19.384Z,52.12
2022-08-29T13:24:05.016Z,51.63
2022-08-29T13:26:32.163Z,50.46
2022-08-29T13:29:10.657Z,50.18
2022-08-29T13:31:38.301Z,49.80
2022-08-29T13:34:11.736Z,49.12
2022-08-29T13:36:47.142Z,49.89
2022-08-29T13:39:24.121Z,51.06
2022-08-29T13:42:03.038Z,50.88
2022-08-29T13:44:57.328Z,51.13
2022-08-29T13:47:30.061Z,51.71
2022-08-29T13:50:06.221Z,50.69
2022-08-29T13:52:33.149Z,50.65
2022-08-29T13:55:01.881Z,51.45
2022-08-29T13:57:29.391Z,51.79
2022-08-29T13:59:57.808Z,50.35
2022-08-29T14:02:24.956Z,52.91
2022-08-29T14:04:51.948Z,49.69
2022-08-29T14:07:23.518Z,49.50
2022-08-29T14:09:51.105Z,49.60
2022-08-29T14:12:18.185Z,46.52
2022-08-29T14:14:45.644Z,47.50
2022-08-29T14:17:18.544Z,46.11
2022-08-29T14:19:46.330Z,46.39
2022-08-29T14:22:13.211Z,48.29
2022-08-29T14:24:39.852Z,46.93
2022-08-29T14:27:06.505Z,46.98
2022-08-29T14:29:35.708Z,46.97
2022-08-29T14:32:02.802Z,47.99
2022-08-29T14:34:32.584Z,46.76
2022-08-29T14:37:00.874Z,46.96
2022-08-29T14:39:27.799Z,46.80
2022-08-29T14:41:55.485Z,48.29
2022-08-29T14:44:22.383Z,49.22
2022-08-29T14:46:50.210Z,48.40
2022-08-29T14:49:17.222Z,48.95
2022-08-29T14:51:43.918Z,48.70
2022-08-29T14:54:10.572Z,47.01
2022-08-29T14:56:55.002Z,48.47
2022-08-29T14:59:22.791Z,46.62
2022-08-29T15:01:54.285Z,48.26
2022-08-29T15:04:35.313Z,47.60
2022-08-29T15:07:07.460Z,49.46
2022-08-29T15:09:34.131Z,48.59
2022-08-29T15:12:00.858Z,48.10
2022-08-29T15:14:27.604Z,48.97
2022-08-29T15:16:54.219Z,45.65
2022-08-29T15:19:53.640Z,47.32
2022-08-29T15:22:09.816Z,45.93
2022-08-29T15:24:37.172Z,45.50
2022-08-29T15:27:04.211Z,44.29
2022-08-29T15:29:31.894Z,42.84
2022-08-29T15:31:58.514Z,42.87
2022-08-29T15:34:25.749Z,41.57
2022-08-29T15:36:54.028Z,42.50
2022-08-29T15:39:21.316Z,42.47
2022-08-29T15:41:47.997Z,46.58
2022-08-29T15:44:15.142Z,47.45
2022-08-29T15:46:47.900Z,48.38
2022-08-29T15:49:19.907Z,51.22
2022-08-29T15:51:48.097Z,53.65
2022-08-29T15:54:15.496Z,56.73
2022-08-29T15:56:43.054Z,57.11
2022-08-29T15:59:12.228Z,56.59
2022-08-29T16:01:43.642Z,55.80
2022-08-29T16:04:11.628Z,56.30
2022-08-29T16:06:38.895Z,54.87
2022-08-29T16:09:15.194Z,56.07
2022-08-29T16:11:43.851Z,58.09
2022-08-29T16:14:46.734Z,61.58
2022-08-29T16:16:57.533Z,61.85
2022-08-29T16:19:24.250Z,61.94
2022-08-29T16:21:51.030Z,61.99
2022-08-29T16:24:17.942Z,61.96
2022-08-29T16:26:45.944Z,63.27
2022-08-29T16:29:12.855Z,62.15
2022-08-29T16:31:40.009Z,63.00
2022-08-29T16:34:06.915Z,64.10
2022-08-29T16:36:36.010Z,62.78
2022-08-29T16:39:05.060Z,64.50
2022-08-29T16:41:37.289Z,62.39
2022-08-29T16:44:04.045Z,65.05
2022-08-29T16:46:31.927Z,65.31
2022-08-29T16:48:58.810Z,66.43
2022-08-29T16:51:27.137Z,65.21
2022-08-29T16:53:54.298Z,65.73
2022-08-29T16:56:21.445Z,63.73
2022-08-29T16:58:48.995Z,64.80
2022-08-29T17:01:15.740Z,64.12
2022-08-29T17:03:43.118Z,64.09
2022-08-29T17:06:10.021Z,65.68
2022-08-29T17:08:36.968Z,66.16
2022-08-29T17:11:03.923Z,65.91
2022-08-29T17:13:31.221Z,66.32
2022-08-29T17:16:04.561Z,65.03
2022-08-29T17:18:32.042Z,62.91
2022-08-29T17:20:58.760Z,63.34
2022-08-29T17:23:30.154Z,64.01
2022-08-29T17:26:00.024Z,64.37
2022-08-29T17:28:27.045Z,61.78
2022-08-29T17:30:55.194Z,62.40
2022-08-29T17:33:21.886Z,63.19
2022-08-29T17:35:49.085Z,62.42
2022-08-29T17:38:17.071Z,62.99
2022-08-29T17:40:45.235Z,62.40
2022-08-29T17:43:12.278Z,62.89
2022-08-29T17:45:39.081Z,63.49
2022-08-29T17:48:06.404Z,63.92
2022-08-29T17:50:34.112Z,63.89
2022-08-29T17:53:01.111Z,63.38
2022-08-29T17:55:30.137Z,64.90
2022-08-29T17:57:58.548Z,65.20
2022-08-29T18:00:25.234Z,65.07
2022-08-29T18:02:52.132Z,64.08
2022-08-29T18:05:19.121Z,61.47
2022-08-29T18:07:45.763Z,61.05
2022-08-29T18:10:15.377Z,62.01
2022-08-29T18:12:42.500Z,61.66
2022-08-29T18:15:10.534Z,61.83
2022-08-29T18:17:38.019Z,62.87
2022-08-29T18:20:07.963Z,64.24
2022-08-29T18:22:35.890Z,65.79
2022-08-29T18:25:02.776Z,66.54
2022-08-29T18:27:29.503Z,66.78
2022-08-29T18:29:56.341Z,66.70
2022-08-29T18:32:24.662Z,67.72
2022-08-29T18:34:51.431Z,68.20
2022-08-29T18:37:18.116Z,67.47
2022-08-29T18:39:44.757Z,66.81
2022-08-29T18:42:24.994Z,66.54
2022-08-29T18:44:57.818Z,68.07
2022-08-29T18:47:24.440Z,68.35
2022-08-29T18:49:51.292Z,68.88
2022-08-29T18:52:17.932Z,68.08
2022-08-29T18:54:44.596Z,67.25
2022-08-29T18:57:11.371Z,66.66
2022-08-29T18:59:38.623Z,66.12
2022-08-29T19:02:05.529Z,66.49
2022-08-29T19:04:32.495Z,66.95
2022-08-29T19:06:59.246Z,65.97
2022-08-29T19:09:26.026Z,67.06
2022-08-29T19:11:52.644Z,67.99
2022-08-29T19:14:19.317Z,69.08
2022-08-29T19:16:45.987Z,68.96
2022-08-29T19:19:13.491Z,69.16
2022-08-29T19:21:40.353Z,69.04
2022-08-29T19:24:07.060Z,68.52
2022-08-29T19:26:36.100Z,68.06
2022-08-29T19:29:07.360Z,71.49
2022-08-29T19:31:34.081Z,72.16
2022-08-29T19:34:01.113Z,71.53
2022-08-29T19:36:27.738Z,71.91
2022-08-29T19:38:54.410Z,71.52
2022-08-29T19:41:21.204Z,73.52
2022-08-29T19:43:47.998Z,73.85
2022-08-29T19:46:18.657Z,75.45
2022-08-29T19:48:48.544Z,75.62
2022-08-29T19:51:19.855Z,74.76
2022-08-29T19:53:47.941Z,73.57
2022-08-29T19:56:14.549Z,73.24
2022-08-29T19:58:41.322Z,74.56
2022-08-29T20:01:09.661Z,74.40
2022-08-29T20:03:41.320Z,73.74
2022-08-29T20:06:09.394Z,73.90
2022-08-29T20:08:40.986Z,73.55
2022-08-29T20:11:17.241Z,73.60
2022-08-29T20:13:50.162Z,74.19
2022-08-29T20:16:19.380Z,73.70
2022-08-29T20:18:46.300Z,73.98
2022-08-29T20:21:16.061Z,74.62
2022-08-29T20:23:49.223Z,75.89
2022-08-29T20:26:19.687Z,75.04
2022-08-29T20:28:47.666Z,76.47
2022-08-29T20:31:14.554Z,76.81
2022-08-29T20:33:41.475Z,76.95
2022-08-29T20:36:08.451Z,76.18
2022-08-29T20:38:35.103Z,75.15
2022-08-29T20:41:01.728Z,75.20
2022-08-29T20:43:28.657Z,78.06
2022-08-29T20:45:55.777Z,79.36
2022-08-29T20:48:25.103Z,80.02
2022-08-29T20:51:01.339Z,79.16
2022-08-29T20:53:31.990Z,79.53
2022-08-29T20:56:00.416Z,78.87
2022-08-29T20:58:29.008Z,78.10
2022-08-29T21:00:57.166Z,78.28
2022-08-29T21:03:23.842Z,79.71
2022-08-29T21:05:50.477Z,80.58
2022-08-29T21:08:22.782Z,80.63
2022-08-29T21:10:52.057Z,79.96
2022-08-29T21:13:19.459Z,79.46
2022-08-29T21:15:46.678Z,81.11
2022-08-29T21:18:15.795Z,80.94
2022-08-29T21:20:53.857Z,81.08
2022-08-29T21:23:23.907Z,81.11
2022-08-29T21:25:59.258Z,80.48
2022-08-29T21:28:26.931Z,80.47
2022-08-29T21:30:53.728Z,79.21
2022-08-29T21:33:20.963Z,77.79
2022-08-29T21:35:49.913Z,78.15
2022-08-29T21:38:17.911Z,77.46
2022-08-29T21:40:51.063Z,77.73
2022-08-29T21:43:21.385Z,78.64
2022-08-29T21:45:48.180Z,78.58
2022-08-29T21:48:16.294Z,79.21
2022-08-29T21:50:43.608Z,79.40
2022-08-29T21:53:14.686Z,78.95
2022-08-29T21:55:41.611Z,79.15
2022-08-29T21:58:08.251Z,79.70
2022-08-29T22:00:36.982Z,78.75
2022-08-29T22:03:06.599Z,78.73
2022-08-29T22:05:33.494Z,78.75
2022-08-29T22:08:00.605Z,78.86
2022-08-29T22:10:29.547Z,78.11
2022-08-29T22:12:56.390Z,78.67
2022-08-29T22:15:23.783Z,78.69
2022-08-29T22:17:50.494Z,80.59
2022-08-29T22:20:17.458Z,80.36
2022-08-29T22:22:44.085Z,80.63
2022-08-29T22:25:10.717Z,80.59
2022-08-29T22:27:37.455Z,80.37
2022-08-29T22:30:06.061Z,80.22
2022-08-29T22:32:36.083Z,80.32
2022-08-29T22:35:04.461Z,79.40
2022-08-29T22:37:31.122Z,77.74
2022-08-29T22:39:57.809Z,78.01
2022-08-29T22:42:24.480Z,78.14
2022-08-29T22:45:06.394Z,78.32
2022-08-29T22:47:33.079Z,79.29
2022-08-29T22:49:59.785Z,80.50
2022-08-29T22:52:26.615Z,79.24
2022-08-29T22:54:54.254Z,78.50
2022-08-29T22:57:20.992Z,78.10
2022-08-29T22:59:48.436Z,78.56
2022-08-29T23:02:16.839Z,78.91
2022-08-29T23:04:43.529Z,79.43
2022-08-29T23:07:11.761Z,79.47
2022-08-29T23:09:40.919Z,81.54
2022-08-29T23:12:09.233Z,81.10
2022-08-29T23:14:36.752Z,82.10
2022-08-29T23:17:05.495Z,81.25
2022-08-29T23:19:33.119Z,81.49
2022-08-29T23:22:00.179Z,81.75
2022-08-29T23:24:29.354Z,83.64
2022-08-29T23:26:55.991Z,83.42
2022-08-29T23:29:22.673Z,81.82
2022-08-29T23:31:49.684Z,81.40
2022-08-29T23:34:16.434Z,82.76
2022-08-29T23:36:43.528Z,81.76
2022-08-29T23:39:11.734Z,81.64
2022-08-29T23:41:38.353Z,82.38
2022-08-29T23:44:05.001Z,80.96
2022-08-29T23:46:31.778Z,80.94
2022-08-29T23:48:58.574Z,80.63
2022-08-29T23:51:25.240Z,81.32
2022-08-29T23:53:51.869Z,82.34
2022-08-29T23:56:20.724Z,81.54
2022-08-29T23:58:48.138Z,80.78
